METAR Data
IDs: Format: Raw Decoded Include TAF

Data at: 1228 UTC 23 Sep 2018

KMWK 231205Z AUTO 00000KT 10SM OVC007 19/17 A3017 RMK AO2 T01860169
KMWK 231145Z AUTO 00000KT 10SM BKN007 OVC011 19/17 A3016 RMK AO2 T01850167
KMWK 231125Z AUTO 04003KT 10SM OVC009 19/17 A3016 RMK AO2 T01850168
KMWK 231105Z AUTO 11003KT 10SM OVC009 19/17 A3015 RMK AO2 T01850167
KMWK 231045Z AUTO 07004KT 10SM OVC010 19/17 A3015 RMK AO2 T01860169
KMWK 231025Z AUTO 06004KT 10SM SCT007 OVC012 19/17 A3015 RMK AO2 T01860169
KMWK 231005Z AUTO 07004KT 10SM OVC012 19/17 A3015 RMK AO2 T01870170
KMWK 230945Z AUTO 05003KT 10SM SCT008 OVC014 19/17 A3014 RMK AO2 T01870170
KMWK 230925Z AUTO 00000KT 10SM OVC014 19/17 A3014 RMK AO2 T01870170
KMWK 230905Z AUTO 00000KT 10SM OVC016 19/17 A3015 RMK AO2 T01870170
KMWK 230845Z AUTO 08005KT 10SM OVC016 19/17 A3015 RMK AO2 T01900172
KMWK 230825Z AUTO 06006KT 10SM OVC016 19/17 A3014 RMK AO2 T01900172
KMWK 230805Z AUTO 08007KT 10SM SCT007 OVC016 19/17 A3014 RMK AO2 T01900173
KMWK 230745Z AUTO 06004KT 10SM SCT007 OVC016 19/18 A3015 RMK AO2 T01910175
KMWK 230725Z AUTO 08004KT 10SM SCT007 OVC018 19/18 A3014 RMK AO2 T01920175
KMWK 230705Z AUTO 08008KT 10SM BKN007 OVC018 19/18 A3014 RMK AO2 T01930177
KMWK 230645Z AUTO 06005KT 10SM OVC007 20/18 A3015 RMK AO2 T01950179
KMWK 230625Z AUTO 05004KT 10SM OVC005 20/18 A3015 RMK AO2 T01970182
KMWK 230605Z AUTO 06009G14KT 10SM OVC005 20/19 A3015 RMK AO2 T02000185
KMWK 230545Z AUTO 07008KT 10SM BKN005 OVC043 20/19 A3015 RMK AO2 T02020187
KMWK 230525Z AUTO 08009KT 060V120 10SM SCT005 BKN045 BKN055 20/19 A3015 RMK AO2 T02030188
KMWK 230505Z AUTO 09008KT 10SM BKN005 BKN049 OVC060 21/19 A3015 RMK AO2 T02050191
KMWK 230445Z AUTO 07008G14KT 10SM BKN005 BKN009 OVC038 21/20 A3015 RMK AO2 T02090195
KMWK 230425Z AUTO 07010G17KT 7SM -RA SCT009 BKN038 OVC050 21/20 A3015 RMK AO2 T02120196
KMWK 230405Z AUTO 07008G15KT 050V110 10SM SCT036 SCT047 BKN060 22/20 A3014 RMK AO2 T02200202
KMWK 230345Z AUTO 10008KT 10SM -DZ SCT038 SCT060 BKN065 23/21 A3014 RMK AO2 T02250207
KMWK 230325Z AUTO 08010KT 10SM BKN040 BKN060 BKN070 23/21 A3014 RMK AO2 T02310212
KMWK 230305Z AUTO 08006KT 10SM SCT040 24/22 A3014 RMK AO2 T02350215
KMWK 230245Z AUTO 08006KT 10SM SCT042 SCT060 SCT070 24/22 A3014 RMK AO2 T02410218
KMWK 230225Z AUTO 08003KT 10SM SCT045 SCT050 BKN065 24/22 A3013 RMK AO2 T02350215
KMWK 230205Z AUTO 00000KT 10SM BKN043 BKN048 BKN055 24/22 A3013 RMK AO2 T02380218
KMWK 230145Z AUTO 00000KT 10SM SCT047 24/22 A3012 RMK AO2 T02350216
KMWK 230125Z AUTO 00000KT 10SM BKN047 23/22 A3012 RMK AO2 T02320215
KMWK 230105Z AUTO 00000KT 10SM CLR 23/22 A3010 RMK AO2 T02330215
KMWK 230045Z AUTO 33003KT 10SM CLR 24/22 A3010 RMK AO2 T02370218
KMWK 230025Z AUTO 21003KT 10SM SCT041 SCT049 SCT075 24/22 A3009 RMK AO2 T02440220
KMWK 230005Z AUTO 00000KT 10SM SCT041 SCT055 SCT075 25/22 A3009 RMK AO2 T02450219
KMWK 222345Z AUTO 00000KT 10SM BKN043 BKN055 25/22 A3009 RMK AO2 T02490221
KMWK 222325Z AUTO 29003KT 10SM SCT043 SCT049 26/22 A3008 RMK AO2 T02580221
KMWK 222305Z AUTO 06004KT 10SM CLR 26/22 A3008 RMK AO2 T02600222
KMWK 222245Z AUTO 07003KT 10SM CLR 27/22 A3008 RMK AO2 T02680224
KMWK 222225Z AUTO 07003KT 10SM SCT041 SCT070 SCT085 28/23 A3007 RMK AO2 T02750225
KMWK 222205Z AUTO 08004KT 10SM SCT070 28/23 A3008 RMK AO2 T02750225
KMWK 222145Z AUTO 08007KT 10SM SCT070 27/22 A3007 RMK AO2 T02740224
KMWK 222125Z AUTO 09010KT 10SM SCT044 SCT055 SCT070 29/22 A3007 RMK AO2 T02850220
KMWK 222105Z AUTO 07006KT 10SM SCT044 29/22 A3007 RMK AO2 T02930223
KMWK 222045Z AUTO 22005KT 10SM CLR 31/21 A3007 RMK AO2 T03060213
KMWK 222025Z AUTO 21004KT 10SM CLR 31/22 A3008 RMK AO2 T03060216
KMWK 222005Z AUTO 21003KT 10SM CLR 30/21 A3008 RMK AO2 T03030212
KMWK 221945Z AUTO 18003KT 10SM SCT043 31/22 A3008 RMK AO2 T03080215
KMWK 221925Z AUTO 22003KT 10SM SCT043 31/21 A3009 RMK AO2 T03070214
KMWK 221905Z AUTO 17003KT 10SM SCT041 SCT048 31/22 A3010 RMK AO2 T03100222
KMWK 221845Z AUTO 31004KT 10SM BKN041 BKN048 31/22 A3010 RMK AO2 T03050218
KMWK 221825Z AUTO 08003KT 10SM SCT039 31/22 A3011 RMK AO2 T03100219
KMWK 221805Z AUTO 00000KT 10SM SCT038 30/22 A3013 RMK AO2 T03040223
KMWK 221745Z AUTO 00000KT 10SM SCT038 29/22 A3014 RMK AO2 T02930216
KMWK 221725Z AUTO 30004KT 10SM CLR 29/22 A3014 RMK AO2 T02940218
KMWK 221705Z AUTO 34003KT 10SM CLR 29/22 A3014 RMK AO2 T02940220
KMWK 221645Z AUTO 28003KT 10SM CLR 29/22 A3015 RMK AO2 T02930222
KMWK 221625Z AUTO 00000KT 10SM CLR 30/22 A3016 RMK AO2 T02980222
KMWK 221605Z AUTO 33003KT 10SM CLR 29/22 A3016 RMK AO2 T02910221
KMWK 221545Z AUTO 02003KT 10SM CLR 29/22 A3016 RMK AO2 T02910220
KMWK 221525Z AUTO 00000KT 10SM CLR 29/22 A3017 RMK AO2 T02870219
KMWK 221505Z AUTO 35003KT 10SM CLR 28/22 A3017 RMK AO2 T02760223
KMWK 221445Z AUTO 00000KT 10SM CLR 27/23 A3017 RMK AO2 T02700231
KMWK 221425Z AUTO 00000KT 10SM CLR 26/22 A3017 RMK AO2 T02610222
KMWK 221405Z AUTO 00000KT 10SM CLR 25/22 A3017 RMK AO2 T02520221
KMWK 221345Z AUTO 00000KT 10SM CLR 24/22 A3017 RMK AO2 T02400215
KMWK 221325Z AUTO 00000KT 10SM CLR 23/21 A3017 RMK AO2 T02320211
KMWK 221305Z AUTO 00000KT 10SM CLR 23/21 A3016 RMK AO2 T02260209
KMWK 221245Z AUTO 00000KT 7SM CLR 22/20 A3016 RMK AO2 T02190202
KMWK 221225Z AUTO 00000KT 5SM BR CLR 21/20 A3016 RMK AO2 T02120196
KMWK 221205Z AUTO 00000KT 4SM BR CLR 20/19 A3016 RMK AO2 T02040189
KMWK 221145Z AUTO 00000KT 5SM BR CLR 20/18 A3016 RMK AO2 T01950180
KMWK 221125Z AUTO 00000KT 4SM BR CLR 20/18 A3015 RMK AO2 T01950180
KMWK 221105Z AUTO 00000KT 7SM CLR 19/18 A3015 RMK AO2 T01920177
KMWK 221045Z AUTO 00000KT 3SM BR 20/18 A3014 RMK AO2 SKY OBSCURED T01970182
KMWK 221025Z AUTO 00000KT 5SM BR CLR 20/18 A3015 RMK AO2 T01960181
KMWK 221005Z AUTO 00000KT 7SM CLR 20/18 A3014 RMK AO2 T01980183
KMWK 220945Z AUTO 00000KT 4SM BR CLR 20/19 A3015 RMK AO2 T02000185
KMWK 220925Z AUTO 00000KT 5SM BR CLR 20/19 A3014 RMK AO2 T02010187
KMWK 220905Z AUTO 00000KT 5SM BR CLR 20/19 A3015 RMK AO2 T02030190
KMWK 220845Z AUTO 00000KT 5SM BR CLR 21/19 A3014 RMK AO2 T02070193
KMWK 220825Z AUTO 00000KT 7SM CLR 21/20 A3015 RMK AO2 T02100196
KMWK 220805Z AUTO 00000KT 10SM CLR 21/20 A3015 RMK AO2 T02100196
KMWK 220745Z AUTO 00000KT 10SM CLR 21/20 A3015 RMK AO2 T02130199
KMWK 220725Z AUTO 00000KT 7SM CLR 21/20 A3016 RMK AO2 T02110197
KMWK 220705Z AUTO 00000KT 7SM CLR 21/20 A3016 RMK AO2 T02120198
KMWK 220645Z AUTO 00000KT 7SM CLR 22/20 A3016 RMK AO2 T02150198
KMWK 220625Z AUTO 00000KT 10SM CLR 22/20 A3017 RMK AO2 T02150200
KMWK 220605Z AUTO 00000KT 10SM CLR 22/20 A3017 RMK AO2 T02150200
KMWK 220545Z AUTO 00000KT 10SM CLR 22/20 A3017 RMK AO2 T02150198
KMWK 220525Z AUTO 00000KT 10SM CLR 23/21 A3017 RMK AO2 T02250206
KMWK 220505Z AUTO 00000KT 10SM CLR 22/20 A3017 RMK AO2 T02180202
KMWK 220445Z AUTO 00000KT 10SM CLR 22/21 A3018 RMK AO2 T02240206
KMWK 220425Z AUTO 00000KT 10SM CLR 22/21 A3017 RMK AO2 T02220205
KMWK 220405Z AUTO 00000KT 10SM SCT065 23/21 A3018 RMK AO2 T02250205
KMWK 220345Z AUTO 00000KT 10SM BKN065 23/21 A3019 RMK AO2 T02290209
KMWK 220325Z AUTO 00000KT 10SM SCT065 24/21 A3018 RMK AO2 T02350210
KMWK 220305Z AUTO 00000KT 10SM SCT047 24/21 A3018 RMK AO2 T02380211
KMWK 220245Z AUTO 00000KT 10SM SCT047 24/21 A3018 RMK AO2 T02430212
KMWK 220225Z AUTO 15003KT 10SM SCT047 SCT060 24/21 A3018 RMK AO2 T02420214
KMWK 220205Z AUTO 00000KT 10SM OVC047 25/21 A3019 RMK AO2 T02490214
KMWK 220145Z AUTO 00000KT 10SM OVC047 25/22 A3018 RMK AO2 T02520216
KMWK 220125Z AUTO 00000KT 10SM SCT049 OVC060 25/22 A3018 RMK AO2 T02520215
KMWK 220105Z AUTO 00000KT 10SM BKN060 25/22 A3017 RMK AO2 T02530216
KMWK 220045Z AUTO 00000KT 10SM BKN060 26/22 A3017 RMK AO2 T02580220